Time;durP1;ratioP1;P1;durP2;ratioP2;P2;SDS_P1;SDS_P2;PMS_P1;PMS_P2;Temp;Humidity;BMP_temperature;BMP_pressure;BME280_temperature;BME280_humidity;BME280_pressure;Samples;Min_cycle;Max_cycle;Signal;HPM_P1;HPM_P2
2022/01/22 00:00:39;;;;;;;23.33;8.98;;;;;;;3.61;96.03;103337.03;5086145;28;20528;-80
2022/01/22 00:03:04;;;;;;;20.33;8.93;;;;;;;3.62;95.90;103337.03;5085553;28;20397;-80
2022/01/22 00:05:30;;;;;;;18.02;8.32;;;;;;;3.62;96.63;103342.25;5069597;28;20033;-80
2022/01/22 00:07:55;;;;;;;17.73;8.38;;;;;;;3.62;96.17;103337.03;5079908;28;20082;-80
2022/01/22 00:10:23;;;;;;;16.55;8.55;;;;;;;3.61;96.02;103335.31;5088253;28;20073;-80
2022/01/22 00:15:16;;;;;;;20.60;8.50;;;;;;;3.63;96.58;103328.34;5090308;28;20433;-80
2022/01/22 00:17:42;;;;;;;17.15;7.90;;;;;;;3.65;96.14;103328.34;5075940;28;20158;-80
2022/01/22 00:20:08;;;;;;;15.65;7.93;;;;;;;3.63;96.28;103325.75;5070560;28;20119;-80
2022/01/22 00:22:35;;;;;;;18.42;8.00;;;;;;;3.64;96.07;103335.28;5069591;28;20031;-80
2022/01/22 00:25:02;;;;;;;21.08;7.43;;;;;;;3.65;96.22;103324.00;5072043;28;20492;-80
2022/01/22 00:27:29;;;;;;;21.40;8.18;;;;;;;3.65;96.13;103320.53;5079166;28;20024;-80
2022/01/22 00:29:55;;;;;;;15.15;7.47;;;;;;;3.62;96.29;103326.63;5090410;28;20149;-80
2022/01/22 00:32:20;;;;;;;17.20;7.35;;;;;;;3.62;96.25;103316.22;5074119;28;20024;-80
2022/01/22 00:34:46;;;;;;;22.33;7.80;;;;;;;3.64;96.50;103311.84;5068614;28;20063;-80
2022/01/22 00:37:14;;;;;;;16.40;7.57;;;;;;;3.64;96.52;103298.84;5069415;28;20401;-80
2022/01/22 00:39:39;;;;;;;15.55;7.47;;;;;;;3.63;96.38;103299.72;5069969;28;20035;-80
2022/01/22 00:42:16;;;;;;;15.15;7.40;;;;;;;3.66;96.23;103302.28;5073294;28;20020;-80
2022/01/22 00:44:46;;;;;;;18.33;8.50;;;;;;;3.64;96.42;103308.38;5104730;28;20036;-80
2022/01/22 00:47:14;;;;;;;20.67;8.02;;;;;;;3.65;96.21;103316.19;5089232;28;20016;-79
2022/01/22 00:49:39;;;;;;;18.75;8.05;;;;;;;3.65;96.60;103305.78;5077170;28;20028;-80
2022/01/22 00:52:05;;;;;;;21.65;8.15;;;;;;;3.65;96.90;103305.78;5069452;28;20028;-80
2022/01/22 00:54:31;;;;;;;18.98;8.60;;;;;;;3.67;96.10;103305.75;5069415;28;20750;-80
2022/01/22 00:56:57;;;;;;;18.77;8.52;;;;;;;3.66;96.62;103297.09;5068726;28;20420;-80
2022/01/22 00:59:23;;;;;;;21.30;8.30;;;;;;;3.67;96.20;103308.38;5068925;28;20024;-80
2022/01/22 01:01:49;;;;;;;21.02;8.95;;;;;;;3.67;96.59;103313.56;5069893;28;20095;-80
2022/01/22 01:04:15;;;;;;;19.13;9.75;;;;;;;3.68;95.94;103310.09;5069733;28;20107;-80
2022/01/22 01:06:40;;;;;;;19.98;8.75;;;;;;;3.67;96.35;103309.22;5068802;28;20031;-80
2022/01/22 01:09:08;;;;;;;20.20;9.20;;;;;;;3.70;96.65;103324.84;5069715;28;20016;-80
2022/01/22 01:11:37;;;;;;;19.45;9.77;;;;;;;3.69;96.40;103312.69;5067637;28;20052;-80
2022/01/22 01:14:05;;;;;;;14.20;9.38;;;;;;;3.69;96.61;103322.25;5090380;28;20043;-80
2022/01/22 01:35:21;;;;;;;16.38;10.73;;;;;;;3.75;96.49;103315.25;5092160;28;20050;-79
2022/01/22 01:37:47;;;;;;;18.25;11.07;;;;;;;3.73;96.65;103308.31;5093540;28;20586;-80
2022/01/22 01:40:16;;;;;;;21.73;11.15;;;;;;;3.73;96.73;103313.53;5093408;28;20031;-80
2022/01/22 01:45:08;;;;;;;18.40;11.75;;;;;;;3.76;96.41;103324.78;5093483;28;20126;-80
2022/01/22 01:47:35;;;;;;;21.92;11.95;;;;;;;3.76;96.85;103324.78;5090889;28;20024;-80
2022/01/22 01:50:00;;;;;;;18.35;11.20;;;;;;;3.74;96.56;103325.69;5093486;28;20020;-80
2022/01/22 01:52:36;;;;;;;21.15;12.57;;;;;;;3.76;97.03;103322.19;5091757;28;20101;-80
2022/01/22 01:55:10;;;;;;;24.35;12.80;;;;;;;3.77;96.88;103326.53;5092827;28;20039;-80
2022/01/22 01:57:40;;;;;;;24.50;12.80;;;;;;;3.75;97.07;103322.19;5092579;28;20024;-80
2022/01/22 02:00:09;;;;;;;20.75;12.80;;;;;;;3.73;97.43;103317.00;5080581;28;20539;-80
2022/01/22 02:02:36;;;;;;;23.73;12.60;;;;;;;3.76;96.82;103313.50;5090795;28;20028;-80
2022/01/22 02:05:01;;;;;;;24.02;13.60;;;;;;;3.78;96.97;103316.97;5081077;28;20028;-80
2022/01/22 02:07:26;;;;;;;25.42;13.75;;;;;;;3.74;97.17;103305.72;5072344;28;20387;-80
2022/01/22 02:09:52;;;;;;;23.25;14.20;;;;;;;3.77;97.51;103316.09;5072102;28;20032;-80
2022/01/22 02:12:45;;;;;;;20.25;14.15;;;;;;;3.76;97.64;103316.13;5077586;28;20502;-80
2022/01/22 02:23:37;;;;;;;26.20;16.58;;;;;;;3.77;97.89;103315.25;5071179;28;20102;-80
2022/01/22 02:26:05;;;;;;;27.80;17.52;;;;;;;3.80;97.85;103316.97;5071852;28;20032;-81
2022/01/22 02:28:32;;;;;;;28.35;17.77;;;;;;;3.77;97.83;103310.91;5069872;28;20519;-80
2022/01/22 02:31:43;;;;;;;27.30;18.48;;;;;;;3.80;98.06;103306.53;5071220;28;20040;-80
2022/01/22 02:36:41;;;;;;;32.33;19.52;;;;;;;3.81;98.41;103314.34;5071312;28;20144;-81
2022/01/22 02:41:33;;;;;;;37.67;21.10;;;;;;;3.81;99.36;103311.75;5071140;28;20033;-80
2022/01/22 02:44:00;;;;;;;32.92;20.13;;;;;;;3.81;99.10;103311.75;5072333;28;20373;-80
2022/01/22 02:46:27;;;;;;;35.00;21.50;;;;;;;3.79;99.26;103303.06;5086889;28;20024;-78
2022/01/22 02:48:54;;;;;;;36.53;21.73;;;;;;;3.79;99.70;103308.28;5070820;28;20052;-79
2022/01/22 02:51:21;;;;;;;34.38;21.35;;;;;;;3.82;99.30;103312.59;5070449;28;20082;-79
2022/01/22 02:53:49;;;;;;;37.60;21.73;;;;;;;3.82;99.08;103315.22;5082966;28;20024;-79
2022/01/22 02:56:15;;;;;;;39.00;21.67;;;;;;;3.80;99.52;103315.22;5107224;28;20028;-79
2022/01/22 02:58:40;;;;;;;29.30;21.45;;;;;;;3.80;99.16;103314.34;5106895;28;20020;-79
2022/01/22 03:01:06;;;;;;;32.38;22.75;;;;;;;3.82;99.19;103317.81;5105526;28;20081;-79
2022/01/22 03:03:31;;;;;;;30.27;21.30;;;;;;;3.83;99.31;103319.53;5106089;28;20123;-79
2022/01/22 03:05:56;;;;;;;33.40;22.30;;;;;;;3.83;99.26;103319.53;5090022;28;20030;-79
2022/01/22 03:08:27;;;;;;;31.20;21.60;;;;;;;3.84;99.49;103326.47;5090608;28;20169;-78
2022/01/22 03:10:53;;;;;;;34.97;21.88;;;;;;;3.81;100.00;103322.16;5091735;28;20024;-78
2022/01/22 03:14:04;;;;;;;34.47;21.90;;;;;;;3.81;99.84;103319.56;5106344;28;20019;-79
2022/01/22 03:19:00;;;;;;;31.33;23.05;;;;;;;3.82;100.00;103318.69;5088130;28;20471;-79
2022/01/22 03:21:37;;;;;;;37.85;23.52;;;;;;;3.84;100.00;103323.88;5090815;28;20430;-79
2022/01/22 03:29:34;;;;;;;39.28;23.25;;;;;;;3.84;100.00;103313.47;5090787;28;20385;-79
2022/01/22 03:32:03;;;;;;;37.35;24.98;;;;;;;3.82;99.87;103323.03;5089931;28;20460;-79
2022/01/22 03:34:29;;;;;;;39.67;24.05;;;;;;;3.84;100.00;103316.06;5086483;28;20486;-79
2022/01/22 03:36:55;;;;;;;35.58;24.17;;;;;;;3.85;100.00;103320.41;5091009;28;20431;-79
2022/01/22 03:39:20;;;;;;;41.03;25.15;;;;;;;3.85;100.00;103320.41;5090303;28;20027;-79
2022/01/22 03:41:47;;;;;;;41.97;26.05;;;;;;;3.85;100.00;103313.44;5089812;28;20053;-79
2022/01/22 03:44:13;;;;;;;38.72;26.20;;;;;;;3.86;100.00;103319.53;5090671;28;20024;-79
2022/01/22 03:46:41;;;;;;;42.10;27.20;;;;;;;3.85;100.00;103317.78;5090676;28;20024;-79
2022/01/22 03:49:10;;;;;;;45.58;28.52;;;;;;;3.86;100.00;103322.13;5090186;28;20032;-79
2022/01/22 03:51:35;;;;;;;44.28;28.65;;;;;;;3.87;100.00;103323.84;5088918;28;20051;-79
2022/01/22 03:54:01;;;;;;;46.15;29.42;;;;;;;3.88;100.00;103318.63;5078341;28;20368;-79
2022/01/22 03:56:26;;;;;;;46.75;28.23;;;;;;;3.87;100.00;103319.50;5075812;28;20071;-79
2022/01/22 03:58:52;;;;;;;46.22;29.52;;;;;;;3.89;100.00;103322.09;5084100;28;20016;-79
2022/01/22 04:04:19;;;;;;;51.92;31.73;;;;;;;3.87;100.00;103311.69;5066799;28;20044;-79
2022/01/22 04:09:15;;;;;;;50.38;31.80;;;;;;;3.90;100.00;103310.81;5069773;28;20044;-79
2022/01/22 04:11:44;;;;;;;46.65;33.15;;;;;;;3.89;100.00;103314.28;5087992;28;20028;-79
2022/01/22 04:14:26;;;;;;;52.00;33.92;;;;;;;3.91;100.00;103312.53;5082117;28;20073;-79
2022/01/22 04:17:08;;;;;;;50.03;33.87;;;;;;;3.89;100.00;103306.47;5088715;28;20024;-79
2022/01/22 04:25:03;;;;;;;59.13;33.95;;;;;;;3.91;100.00;103307.34;5090477;28;20046;-79
2022/01/22 04:27:28;;;;;;;59.53;36.13;;;;;;;3.89;100.00;103303.88;5089979;28;20102;-79
2022/01/22 04:29:57;;;;;;;51.22;35.22;;;;;;;3.90;100.00;103305.59;5090012;28;20124;-79
2022/01/22 04:32:25;;;;;;;62.47;36.05;;;;;;;3.92;100.00;103309.06;5080413;28;20025;-79
2022/01/22 04:34:50;;;;;;;60.03;36.22;;;;;;;3.93;100.00;103308.19;5080212;28;20460;-79
2022/01/22 04:37:18;;;;;;;60.20;35.95;;;;;;;3.94;100.00;103305.56;5104714;28;20077;-79
2022/01/22 04:39:44;;;;;;;60.17;36.60;;;;;;;3.92;100.00;103301.25;5090013;28;20408;-79
2022/01/22 04:42:10;;;;;;;55.40;36.30;;;;;;;3.93;100.00;103305.59;5106283;28;20035;-79
2022/01/22 04:44:42;;;;;;;58.55;36.47;;;;;;;3.94;100.00;103304.69;5087964;28;20447;-79
2022/01/22 04:52:40;;;;;;;58.55;36.60;;;;;;;3.95;100.00;103309.03;5091011;28;20092;-79
2022/01/22 04:55:05;;;;;;;60.15;38.00;;;;;;;3.96;100.00;103313.38;5093978;28;20040;-79
2022/01/22 04:57:39;;;;;;;53.88;36.47;;;;;;;3.97;100.00;103312.50;5092953;28;20026;-79
2022/01/22 05:00:14;;;;;;;59.45;37.33;;;;;;;3.97;100.00;103310.75;5094076;28;20365;-79
2022/01/22 05:02:40;;;;;;;57.92;36.38;;;;;;;3.95;100.00;103314.25;5084568;28;20020;-79
2022/01/22 05:05:06;;;;;;;60.35;36.75;;;;;;;3.99;100.00;103309.00;5077151;28;20032;-79
2022/01/22 05:07:32;;;;;;;58.65;37.80;;;;;;;3.98;100.00;103312.47;5072099;28;20529;-79
2022/01/22 05:09:57;;;;;;;55.95;35.33;;;;;;;4.01;100.00;103311.63;5077958;28;20027;-79
2022/01/22 05:12:23;;;;;;;59.85;37.67;;;;;;;4.00;100.00;103304.66;5078138;28;20028;-79
2022/01/22 05:14:48;;;;;;;63.28;37.03;;;;;;;4.01;100.00;103309.03;5076701;28;20029;-79
2022/01/22 05:17:14;;;;;;;57.83;37.33;;;;;;;4.02;100.00;103310.75;5073628;28;20497;-79
2022/01/22 05:24:56;;;;;;;56.67;35.63;;;;;;;4.03;100.00;103309.88;5073367;28;20125;-80
2022/01/22 05:27:52;;;;;;;56.28;36.20;;;;;;;4.02;100.00;103303.81;5072725;28;20025;-79
2022/01/22 05:38:23;;;;;;;60.00;35.53;;;;;;;4.07;100.00;103301.16;5072834;28;20090;-79
2022/01/22 05:40:49;;;;;;;57.72;36.33;;;;;;;4.07;100.00;103304.63;5071315;28;20465;-79
2022/01/22 05:43:14;;;;;;;59.55;35.83;;;;;;;4.04;100.00;103301.19;5072855;28;20039;-81
2022/01/22 05:45:41;;;;;;;56.47;34.83;;;;;;;4.06;100.00;103307.25;5079597;28;20039;-81
2022/01/22 05:48:06;;;;;;;60.80;36.15;;;;;;;4.08;100.00;103310.69;5092798;28;20311;-81
2022/01/22 06:01:16;;;;;;;54.05;34.53;;;;;;;4.09;100.00;103312.44;5092121;28;20620;-81
2022/01/22 06:03:42;;;;;;;56.97;34.13;;;;;;;4.11;100.00;103310.69;5093673;28;20020;-79
2022/01/22 06:06:08;;;;;;;55.55;35.10;;;;;;;4.12;100.00;103315.00;5089651;28;20032;-79
2022/01/22 06:08:39;;;;;;;58.72;34.33;;;;;;;4.11;100.00;103315.88;5069797;28;20028;-80
2022/01/22 06:11:09;;;;;;;55.15;34.00;;;;;;;4.14;100.00;103317.59;5070921;28;20112;-79
2022/01/22 06:13:44;;;;;;;58.72;34.97;;;;;;;4.15;100.00;103316.72;5078308;28;20032;-79
2022/01/22 06:16:23;;;;;;;63.55;35.28;;;;;;;4.16;100.00;103323.66;5092275;28;20444;-79
2022/01/22 06:18:50;;;;;;;58.95;35.05;;;;;;;4.16;100.00;103321.94;5092570;28;20024;-79
2022/01/22 06:21:15;;;;;;;60.35;33.47;;;;;;;4.15;100.00;103328.00;5092129;28;20069;-79
2022/01/22 06:23:41;;;;;;;56.75;35.05;;;;;;;4.15;100.00;103325.41;5101528;28;20036;-79
2022/01/22 06:26:08;;;;;;;55.33;33.45;;;;;;;4.15;100.00;103321.94;5092537;28;20028;-80
2022/01/22 06:28:34;;;;;;;58.25;33.35;;;;;;;4.17;100.00;103325.41;5083092;28;20035;-79
2022/01/22 06:31:00;;;;;;;55.80;33.55;;;;;;;4.13;100.00;103314.13;5070212;28;20532;-80
2022/01/22 06:33:26;;;;;;;51.83;33.08;;;;;;;4.15;100.00;103312.38;5087200;28;20042;-79
2022/01/22 06:35:51;;;;;;;58.60;33.63;;;;;;;4.17;100.00;103315.84;5087053;28;20044;-79
2022/01/22 06:38:17;;;;;;;58.85;32.80;;;;;;;4.16;100.00;103321.94;5072860;28;20024;-79
2022/01/22 06:43:28;;;;;;;48.85;31.50;;;;;;;4.19;100.00;103329.72;5091439;28;20035;-79
2022/01/22 06:45:53;;;;;;;54.05;31.77;;;;;;;4.19;100.00;103329.72;5092549;28;20028;-80
2022/01/22 06:48:22;;;;;;;52.58;32.03;;;;;;;4.19;100.00;103342.75;5092285;28;20357;-79
2022/01/22 06:50:47;;;;;;;49.47;30.02;;;;;;;4.20;100.00;103334.06;5090663;28;20035;-79
2022/01/22 06:53:13;;;;;;;52.35;31.02;;;;;;;4.21;100.00;103333.19;5090137;28;20567;-80
2022/01/22 06:55:45;;;;;;;47.13;28.17;;;;;;;4.22;100.00;103334.91;5089568;28;20430;-79
2022/01/22 06:58:14;;;;;;;49.22;29.40;;;;;;;4.21;100.00;103333.19;5071936;28;20388;-80
2022/01/22 07:00:39;;;;;;;51.13;29.30;;;;;;;4.23;100.00;103341.84;5077920;28;20244;-79
2022/01/22 07:03:05;;;;;;;51.55;28.50;;;;;;;4.23;100.00;103341.84;5086964;28;20047;-79
2022/01/22 07:05:30;;;;;;;46.20;28.95;;;;;;;4.25;100.00;103339.22;5085750;28;20028;-79
2022/01/22 07:07:55;;;;;;;49.95;28.08;;;;;;;4.25;100.00;103339.22;5090059;28;20229;-79
2022/01/22 07:10:21;;;;;;;47.50;28.65;;;;;;;4.26;100.00;103340.97;5090726;28;20020;-80
2022/01/22 07:12:47;;;;;;;47.67;29.48;;;;;;;4.28;100.00;103337.47;5082229;28;20570;-79
2022/01/22 07:15:12;;;;;;;50.47;29.65;;;;;;;4.29;100.00;103352.22;5081094;28;20106;-80
2022/01/22 07:17:39;;;;;;;48.70;29.88;;;;;;;4.28;100.00;103354.84;5090854;28;20042;-78
2022/01/22 07:20:10;;;;;;;54.38;29.20;;;;;;;4.31;100.00;103365.22;5104030;28;20053;-79
2022/01/22 07:22:54;;;;;;;45.53;27.98;;;;;;;4.31;100.00;103368.69;5087835;28;20023;-79
2022/01/22 07:25:20;;;;;;;50.25;29.30;;;;;;;4.33;100.00;103369.56;5084721;28;20035;-78
2022/01/22 07:27:46;;;;;;;51.40;28.33;;;;;;;4.33;100.00;103384.31;5069429;28;20032;-80
2022/01/22 07:30:14;;;;;;;53.60;28.10;;;;;;;4.34;100.00;103378.25;5070426;28;20499;-78
2022/01/22 07:32:44;;;;;;;52.35;29.60;;;;;;;4.35;100.00;103374.75;5083299;28;20036;-79
2022/01/22 07:35:12;;;;;;;52.13;28.70;;;;;;;4.36;100.00;103382.56;5080347;28;20044;-80
2022/01/22 07:37:38;;;;;;;51.78;30.02;;;;;;;4.33;100.00;103366.94;5068948;28;20056;-80
2022/01/22 07:40:06;;;;;;;53.53;28.60;;;;;;;4.37;100.00;103379.09;5068536;28;20089;-79
2022/01/22 07:42:32;;;;;;;49.08;29.05;;;;;;;4.37;100.00;103381.69;5075262;28;20055;-80
2022/01/22 07:44:58;;;;;;;46.42;28.30;;;;;;;4.39;100.00;103381.66;5070165;28;20481;-79
2022/01/22 07:47:23;;;;;;;49.45;28.27;;;;;;;4.37;100.00;103381.69;5069641;28;20115;-79
2022/01/22 07:49:49;;;;;;;51.75;29.58;;;;;;;4.37;100.00;103386.91;5086752;28;20020;-79
2022/01/22 07:52:14;;;;;;;51.22;28.00;;;;;;;4.41;100.00;103387.78;5079436;28;20028;-80
2022/01/22 07:54:40;;;;;;;56.20;29.67;;;;;;;4.40;100.00;103389.50;5084458;28;20035;-79
2022/01/22 07:57:05;;;;;;;54.20;28.90;;;;;;;4.40;100.00;103376.47;5078054;28;20384;-79
2022/01/22 07:59:33;;;;;;;51.13;29.27;;;;;;;4.42;100.00;103379.06;5078334;28;20297;-80
2022/01/22 08:01:59;;;;;;;50.15;28.88;;;;;;;4.44;100.00;103384.28;5084250;28;20016;-79
2022/01/22 08:04:24;;;;;;;49.30;28.33;;;;;;;4.40;100.00;103381.69;5089515;28;20036;-80
2022/01/22 08:06:52;;;;;;;49.25;27.60;;;;;;;4.43;100.00;103385.16;5074723;28;20051;-80
2022/01/22 08:09:17;;;;;;;49.30;27.95;;;;;;;4.43;100.00;103382.53;5086933;28;20031;-79
2022/01/22 08:11:42;;;;;;;44.90;28.30;;;;;;;4.43;100.00;103377.34;5078564;28;20036;-79
2022/01/22 08:14:09;;;;;;;51.42;28.05;;;;;;;4.42;100.00;103373.00;5077500;28;20028;-79
2022/01/22 08:16:35;;;;;;;52.97;28.77;;;;;;;4.49;100.00;103379.88;5074718;28;20081;-79
2022/01/22 08:19:01;;;;;;;46.03;27.60;;;;;;;4.47;100.00;103371.22;5081277;28;20031;-79
2022/01/22 08:21:26;;;;;;;53.97;27.95;;;;;;;4.47;100.00;103374.69;5068431;28;20013;-79
2022/01/22 08:23:51;;;;;;;44.55;27.75;;;;;;;4.49;100.00;103380.75;5075908;28;20480;-79
2022/01/22 08:26:21;;;;;;;49.03;27.10;;;;;;;4.51;100.00;103383.34;5067675;28;20395;-79
2022/01/22 08:28:58;;;;;;;45.13;26.95;;;;;;;4.53;100.00;103386.81;5082629;28;20028;-78
2022/01/22 08:36:43;;;;;;;44.60;26.13;;;;;;;4.54;100.00;103372.88;5088536;28;20749;-79
2022/01/22 08:39:09;;;;;;;44.90;25.38;;;;;;;4.56;100.00;103376.34;5081541;28;20112;-79
2022/01/22 08:41:36;;;;;;;44.83;25.52;;;;;;;4.58;100.00;103385.03;5070446;28;20100;-79
2022/01/22 08:44:02;;;;;;;39.78;24.63;;;;;;;4.58;100.00;103379.81;5071520;28;20700;-79
2022/01/22 08:46:28;;;;;;;38.58;24.05;;;;;;;4.61;100.00;103385.00;5069751;28;20103;-79
2022/01/22 08:48:54;;;;;;;40.22;23.25;;;;;;;4.64;100.00;103375.41;5080118;28;20396;-80
2022/01/22 08:51:20;;;;;;;40.83;24.05;;;;;;;4.65;100.00;103373.66;5072325;28;20063;-79
2022/01/22 08:53:49;;;;;;;41.17;24.02;;;;;;;4.67;100.00;103374.50;5073346;28;20440;-79
2022/01/22 08:56:15;;;;;;;38.78;22.90;;;;;;;4.69;100.00;103377.97;5070895;28;20026;-79
2022/01/22 08:58:42;;;;;;;36.03;23.02;;;;;;;4.73;100.00;103382.28;5068265;28;20103;-79
2022/01/22 09:01:08;;;;;;;37.60;23.67;;;;;;;4.74;100.00;103386.59;5069320;28;20116;-78
2022/01/22 09:03:33;;;;;;;34.10;22.25;;;;;;;4.73;100.00;103390.09;5068459;28;20060;-79
2022/01/22 09:06:00;;;;;;;39.50;21.13;;;;;;;4.77;100.00;103391.78;5089055;28;20058;-79
2022/01/22 09:08:26;;;;;;;42.05;22.13;;;;;;;4.78;100.00;103393.53;5088428;28;20400;-78
2022/01/22 09:10:52;;;;;;;39.25;21.95;;;;;;;4.82;100.00;103402.22;5088689;28;20044;-79
2022/01/22 09:13:22;;;;;;;38.80;23.10;;;;;;;4.81;100.00;103406.56;5084994;28;20543;-80
2022/01/22 09:15:48;;;;;;;37.60;21.60;;;;;;;4.85;100.00;103410.88;5071375;28;20038;-79
2022/01/22 09:18:14;;;;;;;42.58;22.27;;;;;;;4.85;100.00;103408.28;5068363;28;20028;-79
2022/01/22 09:23:06;;;;;;;39.25;22.45;;;;;;;4.92;100.00;103422.97;5073380;28;20521;-78
2022/01/22 09:25:32;;;;;;;47.75;23.23;;;;;;;4.93;100.00;103413.41;5072684;28;20036;-79
2022/01/22 09:27:58;;;;;;;37.85;21.90;;;;;;;4.93;100.00;103419.50;5074243;28;20028;-78
2022/01/22 09:30:24;;;;;;;42.38;22.45;;;;;;;4.94;100.00;103418.59;5081499;28;20031;-79
2022/01/22 09:32:49;;;;;;;34.67;21.77;;;;;;;4.97;100.00;103410.75;5071871;28;20116;-79
2022/01/22 09:35:15;;;;;;;38.85;22.35;;;;;;;4.98;100.00;103406.41;5072249;28;20404;-79
2022/01/22 09:37:40;;;;;;;41.47;23.05;;;;;;;4.97;100.00;103410.75;5071229;28;20029;-80
2022/01/22 09:40:07;;;;;;;34.25;22.98;;;;;;;4.98;100.00;103412.47;5077663;28;20515;-79
2022/01/22 09:42:33;;;;;;;36.00;22.33;;;;;;;5.04;100.00;103416.78;5072847;28;20496;-79
2022/01/22 09:44:58;;;;;;;41.67;22.83;;;;;;;5.04;100.00;103425.47;5072510;28;20105;-79
2022/01/22 09:47:24;;;;;;;39.00;21.95;;;;;;;5.06;100.00;103435.03;5079920;28;20054;-81
2022/01/22 09:49:50;;;;;;;40.65;23.83;;;;;;;5.08;100.00;103439.34;5074423;28;20101;-80
2022/01/22 09:52:16;;;;;;;34.92;22.38;;;;;;;5.10;100.00;103452.38;5081983;28;20039;-80
2022/01/22 09:54:41;;;;;;;38.33;22.55;;;;;;;5.09;100.00;103443.69;5076909;28;20051;-80
2022/01/22 09:57:09;;;;;;;40.28;23.80;;;;;;;5.13;100.00;103445.38;5072257;28;20452;-80
2022/01/22 09:59:34;;;;;;;40.17;23.50;;;;;;;5.15;100.00;103440.16;5078516;28;20025;-80
2022/01/22 10:02:16;;;;;;;42.10;23.27;;;;;;;5.20;100.00;103440.97;5097865;28;20039;-80
2022/01/22 10:04:45;;;;;;;38.17;23.02;;;;;;;5.18;100.00;103440.13;5086066;28;20029;-80
2022/01/22 10:07:26;;;;;;;43.70;22.98;;;;;;;5.21;100.00;103442.72;5107147;28;20031;-80
2022/01/22 10:10:05;;;;;;;39.72;23.83;;;;;;;5.25;100.00;103449.66;5092239;28;20039;-80
2022/01/22 10:12:48;;;;;;;38.42;23.88;;;;;;;5.26;100.00;103449.63;5083146;28;20024;-79
2022/01/22 10:15:17;;;;;;;43.15;23.00;;;;;;;5.27;100.00;103450.50;5071247;28;20393;-80
2022/01/22 10:17:47;;;;;;;40.75;23.38;;;;;;;5.27;100.00;103445.28;5087471;28;20024;-80
2022/01/22 10:20:21;;;;;;;42.30;23.48;;;;;;;5.30;100.00;103445.25;5071860;28;20108;-80
2022/01/22 10:22:55;;;;;;;39.58;24.48;;;;;;;5.30;100.00;103445.25;5071431;28;20158;-80
2022/01/22 10:25:27;;;;;;;39.15;23.83;;;;;;;5.32;100.00;103451.31;5089506;28;20020;-80
2022/01/22 10:28:07;;;;;;;35.13;22.85;;;;;;;5.33;100.00;103447.81;5086579;28;20028;-80
2022/01/22 10:30:36;;;;;;;38.60;23.58;;;;;;;5.32;100.00;103443.47;5070736;28;20024;-80
2022/01/22 10:35:50;;;;;;;40.75;24.00;;;;;;;5.36;100.00;103450.38;5071095;28;20078;-80
2022/01/22 10:38:21;;;;;;;36.83;23.50;;;;;;;5.38;100.00;103453.84;5071296;28;20365;-80
2022/01/22 10:40:48;;;;;;;36.30;23.05;;;;;;;5.39;100.00;103445.13;5074442;28;20114;-79
2022/01/22 10:43:36;;;;;;;34.45;23.70;;;;;;;5.40;100.00;103446.88;5079769;28;20031;-79
2022/01/22 10:48:55;;;;;;;40.58;24.05;;;;;;;5.45;100.00;103442.44;5088048;28;20040;-79
2022/01/22 10:51:21;;;;;;;37.10;24.05;;;;;;;5.45;100.00;103446.81;5064940;28;20036;-79
2022/01/22 10:53:50;;;;;;;41.85;24.48;;;;;;;5.45;100.00;103450.28;5073289;28;20494;-79
2022/01/22 10:56:23;;;;;;;39.47;23.77;;;;;;;5.47;100.00;103455.50;5072356;28;20031;-79
2022/01/22 10:58:59;;;;;;;39.80;24.00;;;;;;;5.50;100.00;103458.06;5071423;28;20028;-79
2022/01/22 11:01:28;;;;;;;41.20;24.38;;;;;;;5.47;100.00;103453.75;5072344;28;20029;-80
2022/01/22 11:04:13;;;;;;;38.08;23.95;;;;;;;5.51;100.00;103460.66;5071422;28;20050;-79
2022/01/22 11:07:00;;;;;;;34.45;24.08;;;;;;;5.51;100.00;103452.81;5074675;28;20471;-79
2022/01/22 11:09:29;;;;;;;35.33;23.67;;;;;;;5.53;100.00;103453.66;5071261;28;20075;-80
2022/01/22 11:11:55;;;;;;;39.75;24.02;;;;;;;5.53;100.00;103453.66;5069714;28;20153;-79
2022/01/22 11:14:21;;;;;;;38.85;23.75;;;;;;;5.55;100.00;103451.91;5084324;28;20576;-79
2022/01/22 11:16:49;;;;;;;38.80;23.85;;;;;;;5.54;100.00;103438.88;5072920;28;20102;-79
2022/01/22 11:19:17;;;;;;;38.72;23.52;;;;;;;5.56;99.97;103448.41;5086087;28;20421;-80
2022/01/22 11:21:47;;;;;;;45.30;24.25;;;;;;;5.57;100.00;103442.31;5073071;28;20028;-80
2022/01/22 11:24:13;;;;;;;38.25;24.25;;;;;;;5.57;99.90;103433.59;5085878;28;20404;-79
2022/01/22 11:26:39;;;;;;;39.33;25.48;;;;;;;5.60;99.61;103434.47;5074271;28;20150;-79
2022/01/22 11:29:05;;;;;;;37.78;25.50;;;;;;;5.60;99.42;103424.03;5106047;28;20057;-80
2022/01/22 11:31:33;;;;;;;38.55;26.13;;;;;;;5.61;99.36;103424.88;5079441;28;20337;-80
2022/01/22 11:34:00;;;;;;;40.17;26.65;;;;;;;5.62;99.42;103431.84;5079962;28;20036;-80
2022/01/22 11:36:45;;;;;;;43.40;27.77;;;;;;;5.66;99.29;103437.00;5084887;28;20062;-80
2022/01/22 11:39:20;;;;;;;42.42;26.50;;;;;;;5.66;99.31;103428.31;5087438;28;20068;-78
2022/01/22 11:41:58;;;;;;;38.75;26.27;;;;;;;5.69;99.11;103437.84;5086876;28;20095;-79
2022/01/22 11:44:40;;;;;;;43.35;27.00;;;;;;;5.68;98.82;103428.28;5094233;28;20024;-79
2022/01/22 11:47:08;;;;;;;44.38;28.33;;;;;;;5.66;98.86;103423.94;5084314;28;20353;-80
2022/01/22 11:49:36;;;;;;;41.75;27.20;;;;;;;5.69;99.13;103423.03;5086073;28;20016;-80
2022/01/22 11:52:08;;;;;;;38.72;27.60;;;;;;;5.72;98.96;103422.13;5088424;28;20396;-80
2022/01/22 11:55:00;;;;;;;41.97;27.42;;;;;;;5.73;98.89;103424.72;5087484;28;20035;-80
2022/01/22 11:57:27;;;;;;;43.65;28.45;;;;;;;5.74;98.81;103425.59;5084053;28;20387;-80
2022/01/22 12:00:24;;;;;;;40.95;27.48;;;;;;;5.77;98.73;103425.56;5085736;28;20016;-80
2022/01/22 12:03:08;;;;;;;41.40;28.13;;;;;;;5.77;98.78;103425.56;5087646;28;20059;-80
2022/01/22 12:05:52;;;;;;;40.22;26.92;;;;;;;5.79;98.88;103429.00;5087216;28;20456;-78
2022/01/22 12:08:19;;;;;;;44.38;28.02;;;;;;;5.77;98.85;103422.94;5088146;28;20099;-78
2022/01/22 12:14:27;;;;;;;39.83;26.90;;;;;;;5.77;98.56;103420.31;5087269;28;20405;-78
2022/01/22 12:16:39;;;;;;;44.97;28.25;;;;;;;5.80;98.78;103425.50;5088441;28;20047;-78
2022/01/22 12:19:09;;;;;;;43.33;28.92;;;;;;;5.78;98.94;103429.91;5088958;28;20429;-78
2022/01/22 12:21:38;;;;;;;42.38;28.77;;;;;;;5.80;98.88;103425.50;5084064;28;20020;-78
2022/01/22 12:24:06;;;;;;;49.42;28.98;;;;;;;5.78;98.48;103417.69;5088716;28;20016;-78
2022/01/22 12:26:44;;;;;;;44.80;29.08;;;;;;;5.80;98.77;103421.16;5087758;28;20032;-77
2022/01/22 12:29:29;;;;;;;43.15;29.27;;;;;;;5.82;98.91;103428.97;5088131;28;20020;-78
2022/01/22 12:32:05;;;;;;;44.15;29.52;;;;;;;5.80;98.81;103428.13;5094545;28;20013;-78
2022/01/22 12:34:53;;;;;;;44.90;29.52;;;;;;;5.83;99.01;103438.53;5087329;28;20036;-80
2022/01/22 12:37:20;;;;;;;44.22;28.92;;;;;;;5.79;98.67;103429.00;5100859;28;20031;-81
2022/01/22 12:39:50;;;;;;;44.10;29.55;;;;;;;5.78;98.80;103428.16;5086647;28;20455;-78
2022/01/22 12:42:26;;;;;;;51.47;30.30;;;;;;;5.81;98.84;103437.69;5079700;28;20472;-80
2022/01/22 12:44:58;;;;;;;45.08;28.60;;;;;;;5.78;98.84;103425.53;5026828;28;20435;-79
2022/01/22 12:47:25;;;;;;;46.97;29.50;;;;;;;5.78;98.55;103428.16;5040459;28;20080;-78
2022/01/22 12:50:08;;;;;;;42.83;28.77;;;;;;;5.78;98.75;103422.06;5027796;28;20017;-78
2022/01/22 12:52:34;;;;;;;44.22;30.15;;;;;;;5.74;98.95;103425.59;5043352;28;20031;-78
2022/01/22 12:55:13;;;;;;;43.55;29.40;;;;;;;5.76;98.67;103432.53;5028556;28;20022;-79
2022/01/22 12:57:44;;;;;;;46.78;29.63;;;;;;;5.74;98.75;103431.69;5021796;28;20370;-80
2022/01/22 13:00:14;;;;;;;43.08;30.10;;;;;;;5.71;98.78;103423.88;5026460;28;20013;-79
2022/01/22 13:02:46;;;;;;;44.60;29.30;;;;;;;5.74;99.03;103430.81;5026465;28;20029;-78
2022/01/22 13:05:17;;;;;;;43.22;30.63;;;;;;;5.75;99.09;103429.94;5027345;28;20053;-79
2022/01/22 13:07:44;;;;;;;45.28;30.58;;;;;;;5.75;99.23;103443.00;5024810;28;20033;-79